Weerspreuk van de dag: Wie nu zijn vel niet brandt, staat starks als een bleekscheet op het strand.
Het weer levert geen direct gevaar op.    Er zijn geen waarschuwingen afgegeven.

Onweer radar Meer informatie blitzortung!


Regen radar Meer informatie rain snow radar


Bekijk deze sites ook eens:

FPL Automotive (TIP)

Autostekkers.nl (TIP)

Over Luyksgestel

De Kempen, mijn omgeving

BOL.com

Weerstation Noordbergum

Inktweb

Weerstation Hapert

Weerstation Hoogeloon

Weerstation Son&Breugel

Weerstation Castaert

Nieuw horloge

Weerstation Tilburg Reeshof

Weerstation Scheulder

Weerverwachting Samos

Samos actueel

Weerwoord (forum)

Griekenlandforum

Vakantie naar Samos

Winterzon

Canon

Wolven in Nederland



METAR rapporten vliegvelden

   
EBAW - Antwerp
Gewijzigd: 12-07-2020 01:50
Helder  
Helder  
   Wind: Noorden 7.4 km/h
Wind: Noorden 7.4 km/h
Temperatuur: 13°C
Dauwpunt: 10°C
Vochtigheid: 82%
Barometer: 1028 hPa
Zicht: meer dan 10 km
Bewolking: Helder
EBAW 112350Z AUTO 35004KT CAVOK 13/10 Q1028
EBLG - Liège
Gewijzigd: 12-07-2020 01:50
Licht bewolkt  
Licht bewolkt  
   Wind: NNW 3.7 km/h
Wind: NNW 3.7 km/h
Temperatuur: 12°C
Dauwpunt: 10°C
Vochtigheid: 88%
Barometer: 1027 hPa
Bewolking: Licht bewolkt
Zicht: meer dan 10 km
Bewolking: Licht bewolkt 4200 ft
EBLG 112350Z 34002KT 9999 FEW042 12/10 Q1027 NOSIG
EBCV - Mons/Bergen
Gewijzigd: 12-07-2020 01:55
Helder  
Helder  
   Wind: Noorden 9.3 km/h
Wind: Noorden 9.3 km/h
Temperatuur: 10°C
Voelt als: 9°C
Dauwpunt: 9°C
Vochtigheid: 94%
Barometer: 1027 hPa
Bewolking: Helder
Zicht: meer dan 10 km
Bewolking: Helder
EBCV 112355Z AUTO 35005KT 9999 NCD 10/09 Q1027 BLU
EHBK - Maastricht
Gewijzigd: 12-07-2020 01:55
Helder  
Helder  
   Wind: Noorden 5.6 km/h
Wind: Noorden 5.6 km/h
Temperatuur: 11°C
Dauwpunt: 10°C
Vochtigheid: 94%
Barometer: 1027 hPa
Bewolking: Helder
Zicht: meer dan 10 km
Bewolking: Helder
EHBK 112355Z AUTO 35003KT 320V030 9999 NCD 11/10 Q1027
ELLX - Luxemburg
Gewijzigd: 12-07-2020 01:50
Helder  
Helder  
   Wind: NO 14.8 km/h
Wind: NO 14.8 km/h
Temperatuur: 14°C
Dauwpunt: 7°C
Vochtigheid: 63%
Barometer: 1026 hPa
Zicht: meer dan 10 km
Bewolking: Helder
ELLX 112350Z 04008KT CAVOK 14/07 Q1026 NOSIG
EBOS - Oostende
Gewijzigd: 12-07-2020 01:50
Licht bewolkt  
Licht bewolkt  
   Wind: varieert 1.9 km/h
Wind: varieert 1.9 km/h
Temperatuur: 11°C
Dauwpunt: 10°C
Vochtigheid: 94%
Barometer: 1028 hPa
Bewolking: Licht bewolkt
Zicht: meer dan 10 km
Bewolking: Licht bewolkt 2000 ft
EBOS 112350Z VRB01KT 9999 FEW020 11/10 Q1028 NOSIG

Script ontwikkeld door  Saratoga-weather.org Aangepast voor de template door  Weerstation Leuven

U vindt ons ook hier:

Het Weer Aktueel

UK Metoffice

European Weather Network

Weather Underground

AWEKAS